sensor_id;sensor_type;location;lat;lon;timestamp;P1;durP1;ratioP1;P2;durP2;ratioP2
4986;SDS011;12674;51.500;7.552;2023-04-10T00:01:39;132.57;;;73.43;;
4986;SDS011;12674;51.500;7.552;2023-04-10T00:03:45;125.60;;;74.83;;
4986;SDS011;12674;51.500;7.552;2023-04-10T00:05:49;124.97;;;72.50;;
4986;SDS011;12674;51.500;7.552;2023-04-10T00:07:56;131.30;;;74.10;;
4986;SDS011;12674;51.500;7.552;2023-04-10T00:10:00;128.30;;;71.17;;
4986;SDS011;12674;51.500;7.552;2023-04-10T00:12:03;130.80;;;76.33;;
4986;SDS011;12674;51.500;7.552;2023-04-10T00:14:06;126.73;;;73.50;;
4986;SDS011;12674;51.500;7.552;2023-04-10T00:16:10;139.43;;;78.23;;
4986;SDS011;12674;51.500;7.552;2023-04-10T00:18:14;139.20;;;79.20;;
4986;SDS011;12674;51.500;7.552;2023-04-10T00:20:19;142.47;;;79.33;;
4986;SDS011;12674;51.500;7.552;2023-04-10T00:22:23;133.27;;;77.93;;
4986;SDS011;12674;51.500;7.552;2023-04-10T00:24:28;133.37;;;78.30;;
4986;SDS011;12674;51.500;7.552;2023-04-10T00:26:31;138.67;;;77.10;;
4986;SDS011;12674;51.500;7.552;2023-04-10T00:28:34;139.57;;;81.83;;
4986;SDS011;12674;51.500;7.552;2023-04-10T00:30:38;138.30;;;81.17;;
4986;SDS011;12674;51.500;7.552;2023-04-10T00:32:42;153.63;;;86.43;;
4986;SDS011;12674;51.500;7.552;2023-04-10T00:34:45;142.73;;;79.30;;
4986;SDS011;12674;51.500;7.552;2023-04-10T00:36:48;137.90;;;83.70;;
4986;SDS011;12674;51.500;7.552;2023-04-10T00:38:51;144.97;;;82.30;;
4986;SDS011;12674;51.500;7.552;2023-04-10T00:40:56;142.77;;;84.93;;
4986;SDS011;12674;51.500;7.552;2023-04-10T00:42:59;142.33;;;82.33;;
4986;SDS011;12674;51.500;7.552;2023-04-10T00:45:02;131.70;;;78.57;;
4986;SDS011;12674;51.500;7.552;2023-04-10T00:47:06;136.30;;;77.77;;
4986;SDS011;12674;51.500;7.552;2023-04-10T00:49:09;136.70;;;80.33;;
4986;SDS011;12674;51.500;7.552;2023-04-10T00:51:12;138.60;;;78.10;;
4986;SDS011;12674;51.500;7.552;2023-04-10T00:53:15;134.73;;;79.30;;
4986;SDS011;12674;51.500;7.552;2023-04-10T00:55:19;132.63;;;76.20;;
4986;SDS011;12674;51.500;7.552;2023-04-10T00:57:23;137.37;;;78.37;;
4986;SDS011;12674;51.500;7.552;2023-04-10T00:59:27;130.87;;;75.30;;
4986;SDS011;12674;51.500;7.552;2023-04-10T01:01:30;131.07;;;76.40;;
4986;SDS011;12674;51.500;7.552;2023-04-10T01:03:36;128.77;;;71.90;;
4986;SDS011;12674;51.500;7.552;2023-04-10T01:05:43;126.03;;;71.13;;
4986;SDS011;12674;51.500;7.552;2023-04-10T01:07:52;121.10;;;72.57;;
4986;SDS011;12674;51.500;7.552;2023-04-10T01:10:02;120.83;;;70.27;;
4986;SDS011;12674;51.500;7.552;2023-04-10T01:12:10;127.80;;;72.53;;
4986;SDS011;12674;51.500;7.552;2023-04-10T01:14:25;117.63;;;70.60;;
4986;SDS011;12674;51.500;7.552;2023-04-10T01:16:30;113.87;;;67.10;;
4986;SDS011;12674;51.500;7.552;2023-04-10T01:18:37;114.57;;;66.83;;
4986;SDS011;12674;51.500;7.552;2023-04-10T01:20:45;114.40;;;65.33;;
4986;SDS011;12674;51.500;7.552;2023-04-10T01:23:01;109.87;;;65.73;;
4986;SDS011;12674;51.500;7.552;2023-04-10T01:25:16;101.93;;;61.80;;
4986;SDS011;12674;51.500;7.552;2023-04-10T01:27:33;108.53;;;60.40;;
4986;SDS011;12674;51.500;7.552;2023-04-10T01:29:44;105.50;;;59.57;;
4986;SDS011;12674;51.500;7.552;2023-04-10T01:31:50;98.20;;;56.90;;
4986;SDS011;12674;51.500;7.552;2023-04-10T01:33:57;98.07;;;56.60;;
4986;SDS011;12674;51.500;7.552;2023-04-10T01:36:02;103.10;;;57.53;;
4986;SDS011;12674;51.500;7.552;2023-04-10T01:38:07;92.87;;;54.30;;
4986;SDS011;12674;51.500;7.552;2023-04-10T01:40:13;86.20;;;51.43;;
4986;SDS011;12674;51.500;7.552;2023-04-10T01:42:17;88.13;;;51.23;;
4986;SDS011;12674;51.500;7.552;2023-04-10T01:44:22;87.10;;;51.40;;
4986;SDS011;12674;51.500;7.552;2023-04-10T01:46:29;86.00;;;50.37;;
4986;SDS011;12674;51.500;7.552;2023-04-10T01:48:32;83.63;;;48.70;;
4986;SDS011;12674;51.500;7.552;2023-04-10T01:50:35;76.00;;;46.00;;
4986;SDS011;12674;51.500;7.552;2023-04-10T01:52:39;81.20;;;46.97;;
4986;SDS011;12674;51.500;7.552;2023-04-10T01:54:52;74.43;;;45.67;;
4986;SDS011;12674;51.500;7.552;2023-04-10T01:57:05;73.27;;;44.20;;
4986;SDS011;12674;51.500;7.552;2023-04-10T01:59:16;74.17;;;42.27;;
4986;SDS011;12674;51.500;7.552;2023-04-10T02:01:19;67.80;;;39.90;;
4986;SDS011;12674;51.500;7.552;2023-04-10T02:03:32;68.00;;;39.50;;
4986;SDS011;12674;51.500;7.552;2023-04-10T02:05:39;67.47;;;39.73;;
4986;SDS011;12674;51.500;7.552;2023-04-10T02:07:49;61.87;;;37.30;;
4986;SDS011;12674;51.500;7.552;2023-04-10T02:09:58;60.50;;;36.60;;
4986;SDS011;12674;51.500;7.552;2023-04-10T02:12:08;64.83;;;37.83;;
4986;SDS011;12674;51.500;7.552;2023-04-10T02:14:13;59.27;;;36.67;;
4986;SDS011;12674;51.500;7.552;2023-04-10T02:16:18;60.37;;;36.60;;
4986;SDS011;12674;51.500;7.552;2023-04-10T02:18:23;56.87;;;34.77;;
4986;SDS011;12674;51.500;7.552;2023-04-10T02:20:29;54.37;;;34.53;;
4986;SDS011;12674;51.500;7.552;2023-04-10T02:22:32;58.63;;;34.87;;
4986;SDS011;12674;51.500;7.552;2023-04-10T02:24:37;58.40;;;34.10;;
4986;SDS011;12674;51.500;7.552;2023-04-10T02:26:43;51.30;;;31.63;;
4986;SDS011;12674;51.500;7.552;2023-04-10T02:28:47;58.07;;;35.07;;
4986;SDS011;12674;51.500;7.552;2023-04-10T02:30:50;51.43;;;33.40;;
4986;SDS011;12674;51.500;7.552;2023-04-10T02:32:53;55.93;;;33.80;;
4986;SDS011;12674;51.500;7.552;2023-04-10T02:34:56;60.57;;;36.73;;
4986;SDS011;12674;51.500;7.552;2023-04-10T02:37:01;58.70;;;33.87;;
4986;SDS011;12674;51.500;7.552;2023-04-10T02:39:04;53.43;;;34.43;;
4986;SDS011;12674;51.500;7.552;2023-04-10T02:41:18;57.90;;;33.10;;
4986;SDS011;12674;51.500;7.552;2023-04-10T02:43:22;54.00;;;33.63;;
4986;SDS011;12674;51.500;7.552;2023-04-10T02:45:25;55.87;;;33.30;;
4986;SDS011;12674;51.500;7.552;2023-04-10T02:47:28;52.37;;;32.40;;
4986;SDS011;12674;51.500;7.552;2023-04-10T02:49:32;51.83;;;34.00;;
4986;SDS011;12674;51.500;7.552;2023-04-10T02:51:43;55.03;;;34.23;;
4986;SDS011;12674;51.500;7.552;2023-04-10T02:53:48;48.23;;;31.77;;
4986;SDS011;12674;51.500;7.552;2023-04-10T02:56:01;49.83;;;32.10;;
4986;SDS011;12674;51.500;7.552;2023-04-10T02:58:04;46.80;;;30.40;;
4986;SDS011;12674;51.500;7.552;2023-04-10T03:00:07;48.70;;;30.40;;
4986;SDS011;12674;51.500;7.552;2023-04-10T03:02:29;51.77;;;32.20;;
4986;SDS011;12674;51.500;7.552;2023-04-10T03:04:40;50.50;;;31.70;;
4986;SDS011;12674;51.500;7.552;2023-04-10T03:06:43;49.97;;;32.40;;
4986;SDS011;12674;51.500;7.552;2023-04-10T03:08:49;53.93;;;32.43;;
4986;SDS011;12674;51.500;7.552;2023-04-10T03:10:52;51.37;;;31.60;;
4986;SDS011;12674;51.500;7.552;2023-04-10T03:12:55;52.67;;;32.00;;
4986;SDS011;12674;51.500;7.552;2023-04-10T03:14:58;51.60;;;32.70;;
4986;SDS011;12674;51.500;7.552;2023-04-10T03:17:01;48.07;;;30.70;;
4986;SDS011;12674;51.500;7.552;2023-04-10T03:19:04;44.97;;;29.80;;
4986;SDS011;12674;51.500;7.552;2023-04-10T03:21:08;54.13;;;32.83;;
4986;SDS011;12674;51.500;7.552;2023-04-10T03:23:11;47.53;;;30.67;;
4986;SDS011;12674;51.500;7.552;2023-04-10T03:25:16;50.50;;;31.20;;
4986;SDS011;12674;51.500;7.552;2023-04-10T03:27:19;49.53;;;31.43;;
4986;SDS011;12674;51.500;7.552;2023-04-10T03:29:22;47.83;;;31.90;;
4986;SDS011;12674;51.500;7.552;2023-04-10T03:31:25;47.53;;;31.60;;
4986;SDS011;12674;51.500;7.552;2023-04-10T03:33:31;49.73;;;29.50;;
4986;SDS011;12674;51.500;7.552;2023-04-10T03:35:34;52.33;;;30.87;;
4986;SDS011;12674;51.500;7.552;2023-04-10T03:37:37;50.83;;;32.07;;
4986;SDS011;12674;51.500;7.552;2023-04-10T03:39:40;49.07;;;30.80;;
4986;SDS011;12674;51.500;7.552;2023-04-10T03:41:48;50.03;;;32.03;;
4986;SDS011;12674;51.500;7.552;2023-04-10T03:43:52;46.80;;;31.43;;
4986;SDS011;12674;51.500;7.552;2023-04-10T03:45:55;51.17;;;33.05;;
4986;SDS011;12674;51.500;7.552;2023-04-10T03:47:59;57.60;;;31.77;;
4986;SDS011;12674;51.500;7.552;2023-04-10T03:50:11;45.73;;;30.43;;
4986;SDS011;12674;51.500;7.552;2023-04-10T03:52:21;45.90;;;30.10;;
4986;SDS011;12674;51.500;7.552;2023-04-10T03:54:24;50.77;;;31.93;;
4986;SDS011;12674;51.500;7.552;2023-04-10T03:56:27;49.97;;;30.00;;
4986;SDS011;12674;51.500;7.552;2023-04-10T03:58:33;46.20;;;29.93;;
4986;SDS011;12674;51.500;7.552;2023-04-10T04:00:37;45.83;;;28.73;;
4986;SDS011;12674;51.500;7.552;2023-04-10T04:02:51;37.97;;;25.93;;
4986;SDS011;12674;51.500;7.552;2023-04-10T04:05:11;44.53;;;28.23;;
4986;SDS011;12674;51.500;7.552;2023-04-10T04:07:17;38.97;;;25.97;;
4986;SDS011;12674;51.500;7.552;2023-04-10T04:09:30;39.63;;;25.33;;
4986;SDS011;12674;51.500;7.552;2023-04-10T04:11:51;42.03;;;26.37;;
4986;SDS011;12674;51.500;7.552;2023-04-10T04:14:20;44.20;;;26.63;;
4986;SDS011;12674;51.500;7.552;2023-04-10T04:16:30;38.97;;;25.00;;
4986;SDS011;12674;51.500;7.552;2023-04-10T04:18:46;38.23;;;25.30;;
4986;SDS011;12674;51.500;7.552;2023-04-10T04:21:11;41.57;;;25.37;;
4986;SDS011;12674;51.500;7.552;2023-04-10T04:23:32;38.00;;;24.70;;
4986;SDS011;12674;51.500;7.552;2023-04-10T04:25:43;34.30;;;22.53;;
4986;SDS011;12674;51.500;7.552;2023-04-10T04:28:07;35.30;;;21.57;;
4986;SDS011;12674;51.500;7.552;2023-04-10T04:30:39;31.53;;;20.50;;
4986;SDS011;12674;51.500;7.552;2023-04-10T04:33:20;34.10;;;21.10;;
4986;SDS011;12674;51.500;7.552;2023-04-10T04:35:36;36.00;;;21.53;;
4986;SDS011;12674;51.500;7.552;2023-04-10T04:37:49;38.30;;;20.90;;
4986;SDS011;12674;51.500;7.552;2023-04-10T04:40:11;31.27;;;20.70;;
4986;SDS011;12674;51.500;7.552;2023-04-10T04:42:34;28.80;;;20.43;;
4986;SDS011;12674;51.500;7.552;2023-04-10T04:45:10;25.20;;;18.10;;
4986;SDS011;12674;51.500;7.552;2023-04-10T04:47:41;26.00;;;17.10;;
4986;SDS011;12674;51.500;7.552;2023-04-10T04:50:05;28.77;;;19.30;;
4986;SDS011;12674;51.500;7.552;2023-04-10T04:52:27;29.63;;;19.97;;
4986;SDS011;12674;51.500;7.552;2023-04-10T04:54:39;29.83;;;18.70;;
4986;SDS011;12674;51.500;7.552;2023-04-10T04:57:09;26.17;;;17.50;;
4986;SDS011;12674;51.500;7.552;2023-04-10T04:59:38;28.77;;;19.03;;
4986;SDS011;12674;51.500;7.552;2023-04-10T05:01:50;30.33;;;19.70;;
4986;SDS011;12674;51.500;7.552;2023-04-10T05:04:22;30.00;;;19.20;;
4986;SDS011;12674;51.500;7.552;2023-04-10T05:06:37;28.03;;;19.10;;
4986;SDS011;12674;51.500;7.552;2023-04-10T05:09:09;28.90;;;19.67;;
4986;SDS011;12674;51.500;7.552;2023-04-10T05:11:31;32.80;;;20.90;;
4986;SDS011;12674;51.500;7.552;2023-04-10T05:13:53;36.77;;;23.90;;
4986;SDS011;12674;51.500;7.552;2023-04-10T05:16:24;33.17;;;22.33;;
4986;SDS011;12674;51.500;7.552;2023-04-10T05:18:43;34.63;;;23.00;;
4986;SDS011;12674;51.500;7.552;2023-04-10T05:21:15;43.10;;;26.40;;
4986;SDS011;12674;51.500;7.552;2023-04-10T05:23:36;39.00;;;25.40;;
4986;SDS011;12674;51.500;7.552;2023-04-10T05:25:56;42.37;;;27.30;;
4986;SDS011;12674;51.500;7.552;2023-04-10T05:28:24;43.53;;;25.43;;
4986;SDS011;12674;51.500;7.552;2023-04-10T05:30:46;40.33;;;26.60;;
4986;SDS011;12674;51.500;7.552;2023-04-10T05:33:15;41.23;;;28.50;;
4986;SDS011;12674;51.500;7.552;2023-04-10T05:35:36;48.63;;;30.93;;
4986;SDS011;12674;51.500;7.552;2023-04-10T05:38:01;46.47;;;28.37;;
4986;SDS011;12674;51.500;7.552;2023-04-10T05:40:04;49.60;;;30.80;;
4986;SDS011;12674;51.500;7.552;2023-04-10T05:42:24;45.67;;;29.77;;
4986;SDS011;12674;51.500;7.552;2023-04-10T05:44:40;43.20;;;26.90;;
4986;SDS011;12674;51.500;7.552;2023-04-10T05:47:02;47.13;;;30.27;;
4986;SDS011;12674;51.500;7.552;2023-04-10T05:49:25;46.77;;;29.43;;
4986;SDS011;12674;51.500;7.552;2023-04-10T05:51:44;45.50;;;29.67;;
4986;SDS011;12674;51.500;7.552;2023-04-10T05:54:03;47.67;;;31.40;;
4986;SDS011;12674;51.500;7.552;2023-04-10T05:56:38;46.30;;;30.27;;
4986;SDS011;12674;51.500;7.552;2023-04-10T05:59:01;50.33;;;28.63;;
4986;SDS011;12674;51.500;7.552;2023-04-10T06:01:37;44.23;;;28.17;;
4986;SDS011;12674;51.500;7.552;2023-04-10T06:03:41;44.43;;;29.50;;
4986;SDS011;12674;51.500;7.552;2023-04-10T06:05:45;43.30;;;28.20;;
4986;SDS011;12674;51.500;7.552;2023-04-10T06:07:49;46.43;;;28.43;;
4986;SDS011;12674;51.500;7.552;2023-04-10T06:09:53;43.83;;;28.43;;
4986;SDS011;12674;51.500;7.552;2023-04-10T06:11:56;48.17;;;30.47;;
4986;SDS011;12674;51.500;7.552;2023-04-10T06:13:59;42.83;;;27.87;;
4986;SDS011;12674;51.500;7.552;2023-04-10T06:16:10;46.00;;;28.63;;
4986;SDS011;12674;51.500;7.552;2023-04-10T06:18:15;40.37;;;28.67;;
4986;SDS011;12674;51.500;7.552;2023-04-10T06:20:19;48.33;;;29.97;;
4986;SDS011;12674;51.500;7.552;2023-04-10T06:22:23;43.27;;;27.23;;
4986;SDS011;12674;51.500;7.552;2023-04-10T06:24:27;41.10;;;28.20;;
4986;SDS011;12674;51.500;7.552;2023-04-10T06:26:32;41.50;;;27.73;;
4986;SDS011;12674;51.500;7.552;2023-04-10T06:28:37;33.63;;;22.60;;
4986;SDS011;12674;51.500;7.552;2023-04-10T06:30:40;44.03;;;27.57;;
4986;SDS011;12674;51.500;7.552;2023-04-10T06:32:43;28.03;;;19.97;;
4986;SDS011;12674;51.500;7.552;2023-04-10T06:34:46;31.80;;;21.27;;
4986;SDS011;12674;51.500;7.552;2023-04-10T06:36:50;32.73;;;21.50;;
4986;SDS011;12674;51.500;7.552;2023-04-10T06:38:53;33.00;;;22.63;;
4986;SDS011;12674;51.500;7.552;2023-04-10T06:40:57;29.63;;;20.10;;
4986;SDS011;12674;51.500;7.552;2023-04-10T06:43:01;26.38;;;18.38;;
4986;SDS011;12674;51.500;7.552;2023-04-10T06:45:11;24.67;;;17.23;;
4986;SDS011;12674;51.500;7.552;2023-04-10T06:47:14;24.45;;;16.98;;
4986;SDS011;12674;51.500;7.552;2023-04-10T06:49:18;21.98;;;15.63;;
4986;SDS011;12674;51.500;7.552;2023-04-10T06:51:22;28.05;;;16.20;;
4986;SDS011;12674;51.500;7.552;2023-04-10T06:53:25;18.35;;;13.70;;
4986;SDS011;12674;51.500;7.552;2023-04-10T06:55:29;16.67;;;11.10;;
4986;SDS011;12674;51.500;7.552;2023-04-10T06:57:32;30.08;;;19.50;;
4986;SDS011;12674;51.500;7.552;2023-04-10T06:59:36;33.65;;;20.33;;
4986;SDS011;12674;51.500;7.552;2023-04-10T07:01:40;14.15;;;10.82;;
4986;SDS011;12674;51.500;7.552;2023-04-10T07:03:43;13.48;;;10.38;;
4986;SDS011;12674;51.500;7.552;2023-04-10T07:05:46;13.50;;;9.90;;
4986;SDS011;12674;51.500;7.552;2023-04-10T07:07:49;11.95;;;9.15;;
4986;SDS011;12674;51.500;7.552;2023-04-10T07:09:52;11.60;;;8.95;;
4986;SDS011;12674;51.500;7.552;2023-04-10T07:11:56;11.30;;;9.27;;
4986;SDS011;12674;51.500;7.552;2023-04-10T07:13:59;9.77;;;8.65;;
4986;SDS011;12674;51.500;7.552;2023-04-10T07:16:03;9.90;;;8.68;;
4986;SDS011;12674;51.500;7.552;2023-04-10T07:18:08;9.80;;;8.32;;
4986;SDS011;12674;51.500;7.552;2023-04-10T07:20:11;9.52;;;7.97;;
4986;SDS011;12674;51.500;7.552;2023-04-10T07:22:14;11.18;;;8.52;;
4986;SDS011;12674;51.500;7.552;2023-04-10T07:24:17;10.02;;;8.13;;
4986;SDS011;12674;51.500;7.552;2023-04-10T07:26:20;11.05;;;8.13;;
4986;SDS011;12674;51.500;7.552;2023-04-10T07:28:23;9.25;;;7.60;;
4986;SDS011;12674;51.500;7.552;2023-04-10T07:30:27;9.07;;;7.05;;
4986;SDS011;12674;51.500;7.552;2023-04-10T07:32:31;8.95;;;7.72;;
4986;SDS011;12674;51.500;7.552;2023-04-10T07:34:35;9.43;;;7.75;;
4986;SDS011;12674;51.500;7.552;2023-04-10T07:36:38;11.02;;;8.77;;
4986;SDS011;12674;51.500;7.552;2023-04-10T07:38:41;10.27;;;7.68;;
4986;SDS011;12674;51.500;7.552;2023-04-10T07:40:44;22.45;;;7.43;;
4986;SDS011;12674;51.500;7.552;2023-04-10T07:42:47;8.18;;;7.20;;
4986;SDS011;12674;51.500;7.552;2023-04-10T07:44:51;7.43;;;6.00;;
4986;SDS011;12674;51.500;7.552;2023-04-10T07:46:54;32.20;;;6.00;;
4986;SDS011;12674;51.500;7.552;2023-04-10T07:48:58;8.30;;;6.68;;
4986;SDS011;12674;51.500;7.552;2023-04-10T07:51:01;5.93;;;4.85;;
4986;SDS011;12674;51.500;7.552;2023-04-10T07:53:04;8.98;;;5.65;;
4986;SDS011;12674;51.500;7.552;2023-04-10T07:55:08;9.50;;;4.68;;
4986;SDS011;12674;51.500;7.552;2023-04-10T07:57:11;5.88;;;4.68;;
4986;SDS011;12674;51.500;7.552;2023-04-10T07:59:15;4.97;;;4.28;;
4986;SDS011;12674;51.500;7.552;2023-04-10T08:01:18;4.72;;;4.32;;
4986;SDS011;12674;51.500;7.552;2023-04-10T08:03:21;4.55;;;4.15;;
4986;SDS011;12674;51.500;7.552;2023-04-10T08:05:26;4.05;;;3.70;;
4986;SDS011;12674;51.500;7.552;2023-04-10T08:07:29;5.50;;;3.75;;
4986;SDS011;12674;51.500;7.552;2023-04-10T08:09:32;4.15;;;3.55;;
4986;SDS011;12674;51.500;7.552;2023-04-10T08:11:35;3.80;;;3.42;;
4986;SDS011;12674;51.500;7.552;2023-04-10T08:13:39;4.03;;;3.70;;
4986;SDS011;12674;51.500;7.552;2023-04-10T08:15:42;3.30;;;3.10;;
4986;SDS011;12674;51.500;7.552;2023-04-10T08:17:45;4.32;;;3.92;;
4986;SDS011;12674;51.500;7.552;2023-04-10T08:19:49;5.88;;;3.40;;
4986;SDS011;12674;51.500;7.552;2023-04-10T08:21:53;6.07;;;3.75;;
4986;SDS011;12674;51.500;7.552;2023-04-10T08:23:56;4.15;;;3.40;;
4986;SDS011;12674;51.500;7.552;2023-04-10T08:26:01;4.50;;;2.97;;
4986;SDS011;12674;51.500;7.552;2023-04-10T08:28:04;3.85;;;3.55;;
4986;SDS011;12674;51.500;7.552;2023-04-10T08:30:07;6.38;;;3.65;;
4986;SDS011;12674;51.500;7.552;2023-04-10T08:32:11;7.90;;;3.33;;
4986;SDS011;12674;51.500;7.552;2023-04-10T08:34:14;4.07;;;3.60;;
4986;SDS011;12674;51.500;7.552;2023-04-10T08:36:17;3.67;;;3.33;;
4986;SDS011;12674;51.500;7.552;2023-04-10T08:38:22;4.05;;;3.25;;
4986;SDS011;12674;51.500;7.552;2023-04-10T08:40:28;3.50;;;3.20;;
4986;SDS011;12674;51.500;7.552;2023-04-10T08:42:32;3.95;;;3.65;;
4986;SDS011;12674;51.500;7.552;2023-04-10T08:44:36;3.40;;;3.10;;
4986;SDS011;12674;51.500;7.552;2023-04-10T08:46:42;3.38;;;3.08;;
4986;SDS011;12674;51.500;7.552;2023-04-10T08:48:46;3.80;;;3.42;;
4986;SDS011;12674;51.500;7.552;2023-04-10T08:51:12;3.40;;;3.10;;
4986;SDS011;12674;51.500;7.552;2023-04-10T08:53:20;3.20;;;2.90;;
4986;SDS011;12674;51.500;7.552;2023-04-10T08:55:27;3.47;;;3.17;;
4986;SDS011;12674;51.500;7.552;2023-04-10T08:57:30;3.22;;;2.92;;
4986;SDS011;12674;51.500;7.552;2023-04-10T08:59:33;4.82;;;3.40;;
4986;SDS011;12674;51.500;7.552;2023-04-10T09:01:36;3.33;;;3.03;;
4986;SDS011;12674;51.500;7.552;2023-04-10T09:03:44;14.70;;;3.13;;
4986;SDS011;12674;51.500;7.552;2023-04-10T09:05:50;3.83;;;2.97;;
4986;SDS011;12674;51.500;7.552;2023-04-10T09:07:53;3.28;;;2.88;;
4986;SDS011;12674;51.500;7.552;2023-04-10T09:10:01;3.08;;;2.80;;
4986;SDS011;12674;51.500;7.552;2023-04-10T09:12:04;3.90;;;2.92;;
4986;SDS011;12674;51.500;7.552;2023-04-10T09:14:16;3.85;;;3.20;;
4986;SDS011;12674;51.500;7.552;2023-04-10T09:16:22;3.50;;;3.20;;
4986;SDS011;12674;51.500;7.552;2023-04-10T09:18:40;2.85;;;2.65;;
4986;SDS011;12674;51.500;7.552;2023-04-10T09:20:44;5.97;;;3.30;;
4986;SDS011;12674;51.500;7.552;2023-04-10T09:22:53;2.40;;;2.20;;
4986;SDS011;12674;51.500;7.552;2023-04-10T09:24:57;2.80;;;2.50;;
4986;SDS011;12674;51.500;7.552;2023-04-10T09:27:02;3.45;;;3.15;;
4986;SDS011;12674;51.500;7.552;2023-04-10T09:29:06;2.65;;;2.40;;
4986;SDS011;12674;51.500;7.552;2023-04-10T09:31:25;2.65;;;2.45;;
4986;SDS011;12674;51.500;7.552;2023-04-10T09:33:29;2.83;;;2.55;;
4986;SDS011;12674;51.500;7.552;2023-04-10T09:35:36;3.83;;;2.85;;
4986;SDS011;12674;51.500;7.552;2023-04-10T09:37:40;3.67;;;2.70;;
4986;SDS011;12674;51.500;7.552;2023-04-10T09:39:45;2.58;;;2.38;;
4986;SDS011;12674;51.500;7.552;2023-04-10T09:41:49;3.47;;;2.28;;
4986;SDS011;12674;51.500;7.552;2023-04-10T09:44:00;3.83;;;2.83;;
4986;SDS011;12674;51.500;7.552;2023-04-10T09:46:08;3.08;;;2.70;;
4986;SDS011;12674;51.500;7.552;2023-04-10T09:48:12;2.75;;;2.45;;
4986;SDS011;12674;51.500;7.552;2023-04-10T09:50:15;2.70;;;2.47;;
4986;SDS011;12674;51.500;7.552;2023-04-10T09:52:18;2.65;;;2.28;;
4986;SDS011;12674;51.500;7.552;2023-04-10T09:54:34;2.08;;;1.90;;
4986;SDS011;12674;51.500;7.552;2023-04-10T09:56:38;2.20;;;2.00;;
4986;SDS011;12674;51.500;7.552;2023-04-10T09:58:41;2.40;;;2.20;;
4986;SDS011;12674;51.500;7.552;2023-04-10T10:00:46;2.45;;;2.25;;
4986;SDS011;12674;51.500;7.552;2023-04-10T10:02:50;2.95;;;2.55;;
4986;SDS011;12674;51.500;7.552;2023-04-10T10:04:54;2.35;;;2.15;;
4986;SDS011;12674;51.500;7.552;2023-04-10T10:06:57;1.92;;;1.80;;
4986;SDS011;12674;51.500;7.552;2023-04-10T10:09:02;2.35;;;2.13;;
4986;SDS011;12674;51.500;7.552;2023-04-10T10:11:05;2.13;;;2.03;;
4986;SDS011;12674;51.500;7.552;2023-04-10T10:13:13;2.85;;;2.55;;
4986;SDS011;12674;51.500;7.552;2023-04-10T10:15:20;2.30;;;2.10;;
4986;SDS011;12674;51.500;7.552;2023-04-10T10:17:28;2.40;;;2.20;;
4986;SDS011;12674;51.500;7.552;2023-04-10T10:19:41;2.30;;;2.10;;
4986;SDS011;12674;51.500;7.552;2023-04-10T10:21:50;2.47;;;2.28;;
4986;SDS011;12674;51.500;7.552;2023-04-10T10:23:54;2.88;;;2.60;;
4986;SDS011;12674;51.500;7.552;2023-04-10T10:26:00;9.32;;;2.17;;
4986;SDS011;12674;51.500;7.552;2023-04-10T10:28:07;3.72;;;2.80;;
4986;SDS011;12674;51.500;7.552;2023-04-10T10:30:14;2.25;;;2.00;;
4986;SDS011;12674;51.500;7.552;2023-04-10T10:32:32;1.92;;;1.83;;
4986;SDS011;12674;51.500;7.552;2023-04-10T10:34:36;2.92;;;2.10;;
4986;SDS011;12674;51.500;7.552;2023-04-10T10:36:39;2.58;;;2.38;;
4986;SDS011;12674;51.500;7.552;2023-04-10T10:38:49;1.98;;;1.88;;
4986;SDS011;12674;51.500;7.552;2023-04-10T10:40:59;3.03;;;1.85;;
4986;SDS011;12674;51.500;7.552;2023-04-10T10:43:06;4.60;;;2.17;;
4986;SDS011;12674;51.500;7.552;2023-04-10T10:45:15;2.50;;;2.00;;
4986;SDS011;12674;51.500;7.552;2023-04-10T10:47:21;2.33;;;2.13;;
4986;SDS011;12674;51.500;7.552;2023-04-10T10:51:55;2.60;;;2.08;;
4986;SDS011;12674;51.500;7.552;2023-04-10T10:53:59;1.98;;;1.88;;
4986;SDS011;12674;51.500;7.552;2023-04-10T10:58:46;6.57;;;1.98;;
4986;SDS011;12674;51.500;7.552;2023-04-10T11:01:04;2.42;;;2.00;;
4986;SDS011;12674;51.500;7.552;2023-04-10T11:03:26;1.85;;;1.75;;
4986;SDS011;12674;51.500;7.552;2023-04-10T11:05:53;3.75;;;1.92;;
4986;SDS011;12674;51.500;7.552;2023-04-10T11:08:06;1.63;;;1.52;;
4986;SDS011;12674;51.500;7.552;2023-04-10T11:10:15;2.70;;;1.73;;
4986;SDS011;12674;51.500;7.552;2023-04-10T11:12:19;2.25;;;2.05;;
4986;SDS011;12674;51.500;7.552;2023-04-10T11:14:23;1.67;;;1.58;;
4986;SDS011;12674;51.500;7.552;2023-04-10T11:19:00;2.20;;;2.00;;
4986;SDS011;12674;51.500;7.552;2023-04-10T11:21:18;4.45;;;2.10;;
4986;SDS011;12674;51.500;7.552;2023-04-10T11:23:21;5.10;;;2.20;;
4986;SDS011;12674;51.500;7.552;2023-04-10T11:25:36;1.88;;;1.77;;
4986;SDS011;12674;51.500;7.552;2023-04-10T11:27:49;3.58;;;2.30;;
4986;SDS011;12674;51.500;7.552;2023-04-10T11:29:53;4.13;;;2.03;;
4986;SDS011;12674;51.500;7.552;2023-04-10T11:31:59;1.80;;;1.70;;
4986;SDS011;12674;51.500;7.552;2023-04-10T11:34:06;2.85;;;1.77;;
4986;SDS011;12674;51.500;7.552;2023-04-10T11:36:12;2.10;;;1.90;;
4986;SDS011;12674;51.500;7.552;2023-04-10T11:38:18;2.05;;;1.95;;
4986;SDS011;12674;51.500;7.552;2023-04-10T11:40:21;2.15;;;1.90;;
4986;SDS011;12674;51.500;7.552;2023-04-10T11:42:24;6.88;;;1.92;;
4986;SDS011;12674;51.500;7.552;2023-04-10T11:44:28;3.38;;;1.92;;
4986;SDS011;12674;51.500;7.552;2023-04-10T11:46:34;3.40;;;1.80;;
4986;SDS011;12674;51.500;7.552;2023-04-10T11:48:37;3.20;;;1.40;;
4986;SDS011;12674;51.500;7.552;2023-04-10T11:50:40;2.10;;;1.85;;
4986;SDS011;12674;51.500;7.552;2023-04-10T11:52:44;2.03;;;1.88;;
4986;SDS011;12674;51.500;7.552;2023-04-10T11:54:50;2.00;;;1.80;;
4986;SDS011;12674;51.500;7.552;2023-04-10T11:56:57;2.25;;;1.73;;
4986;SDS011;12674;51.500;7.552;2023-04-10T11:59:01;7.25;;;1.95;;
4986;SDS011;12674;51.500;7.552;2023-04-10T12:01:08;2.00;;;1.80;;
4986;SDS011;12674;51.500;7.552;2023-04-10T12:03:15;3.70;;;1.65;;
4986;SDS011;12674;51.500;7.552;2023-04-10T12:05:18;1.67;;;1.58;;
4986;SDS011;12674;51.500;7.552;2023-04-10T12:07:22;1.90;;;1.80;;
4986;SDS011;12674;51.500;7.552;2023-04-10T12:09:25;2.63;;;1.98;;
4986;SDS011;12674;51.500;7.552;2023-04-10T12:11:29;2.78;;;2.03;;
4986;SDS011;12674;51.500;7.552;2023-04-10T12:13:36;1.80;;;1.70;;
4986;SDS011;12674;51.500;7.552;2023-04-10T12:15:39;1.85;;;1.75;;
4986;SDS011;12674;51.500;7.552;2023-04-10T12:17:42;2.35;;;2.15;;
4986;SDS011;12674;51.500;7.552;2023-04-10T12:19:49;1.80;;;1.70;;
4986;SDS011;12674;51.500;7.552;2023-04-10T12:21:52;2.10;;;1.90;;
4986;SDS011;12674;51.500;7.552;2023-04-10T12:23:55;1.55;;;1.45;;
4986;SDS011;12674;51.500;7.552;2023-04-10T12:26:15;2.40;;;2.20;;
4986;SDS011;12674;51.500;7.552;2023-04-10T12:28:20;2.53;;;2.00;;
4986;SDS011;12674;51.500;7.552;2023-04-10T12:30:23;2.17;;;1.98;;
4986;SDS011;12674;51.500;7.552;2023-04-10T12:32:27;1.90;;;1.60;;
4986;SDS011;12674;51.500;7.552;2023-04-10T12:34:30;2.08;;;1.75;;
4986;SDS011;12674;51.500;7.552;2023-04-10T12:36:33;1.60;;;1.50;;
4986;SDS011;12674;51.500;7.552;2023-04-10T12:38:37;1.95;;;1.85;;
4986;SDS011;12674;51.500;7.552;2023-04-10T12:40:56;2.47;;;2.28;;
4986;SDS011;12674;51.500;7.552;2023-04-10T12:43:00;2.05;;;1.83;;
4986;SDS011;12674;51.500;7.552;2023-04-10T12:45:09;1.77;;;1.60;;
4986;SDS011;12674;51.500;7.552;2023-04-10T12:47:14;1.95;;;1.83;;
4986;SDS011;12674;51.500;7.552;2023-04-10T12:49:17;2.83;;;1.80;;
4986;SDS011;12674;51.500;7.552;2023-04-10T12:53:49;1.90;;;1.77;;
4986;SDS011;12674;51.500;7.552;2023-04-10T12:55:55;1.70;;;1.60;;
4986;SDS011;12674;51.500;7.552;2023-04-10T12:58:14;2.30;;;2.10;;
4986;SDS011;12674;51.500;7.552;2023-04-10T13:00:19;2.08;;;1.88;;